sensor_id;sensor_type;location;lat;lon;timestamp;P1;durP1;ratioP1;P2;durP2;ratioP2
51148;SDS011;37210;50.058;8.688;2022-09-13T00:00:04;5.90;;;5.35;;
51148;SDS011;37210;50.058;8.688;2022-09-13T00:02:35;6.15;;;5.65;;
51148;SDS011;37210;50.058;8.688;2022-09-13T00:05:06;5.68;;;5.18;;
51148;SDS011;37210;50.058;8.688;2022-09-13T00:07:35;6.03;;;5.22;;
51148;SDS011;37210;50.058;8.688;2022-09-13T00:10:03;5.30;;;4.70;;
51148;SDS011;37210;50.058;8.688;2022-09-13T00:12:31;8.00;;;5.45;;
51148;SDS011;37210;50.058;8.688;2022-09-13T00:14:59;8.57;;;5.57;;
51148;SDS011;37210;50.058;8.688;2022-09-13T00:17:27;6.63;;;5.40;;
51148;SDS011;37210;50.058;8.688;2022-09-13T00:19:54;5.82;;;5.25;;
51148;SDS011;37210;50.058;8.688;2022-09-13T00:22:23;6.03;;;5.45;;
51148;SDS011;37210;50.058;8.688;2022-09-13T00:24:52;5.85;;;5.28;;
51148;SDS011;37210;50.058;8.688;2022-09-13T00:27:20;6.25;;;5.65;;
51148;SDS011;37210;50.058;8.688;2022-09-13T00:29:47;6.75;;;6.05;;
51148;SDS011;37210;50.058;8.688;2022-09-13T00:32:16;6.35;;;5.70;;
51148;SDS011;37210;50.058;8.688;2022-09-13T00:34:44;6.38;;;5.78;;
51148;SDS011;37210;50.058;8.688;2022-09-13T00:37:12;7.50;;;6.20;;
51148;SDS011;37210;50.058;8.688;2022-09-13T00:39:41;6.60;;;5.53;;
51148;SDS011;37210;50.058;8.688;2022-09-13T00:42:10;5.43;;;4.93;;
51148;SDS011;37210;50.058;8.688;2022-09-13T00:44:55;6.65;;;5.80;;
51148;SDS011;37210;50.058;8.688;2022-09-13T00:47:26;7.57;;;5.55;;
51148;SDS011;37210;50.058;8.688;2022-09-13T00:50:05;6.22;;;5.65;;
51148;SDS011;37210;50.058;8.688;2022-09-13T00:52:40;6.53;;;5.93;;
51148;SDS011;37210;50.058;8.688;2022-09-13T00:55:14;6.35;;;5.75;;
51148;SDS011;37210;50.058;8.688;2022-09-13T00:57:48;6.95;;;6.15;;
51148;SDS011;37210;50.058;8.688;2022-09-13T01:00:17;7.03;;;5.78;;
51148;SDS011;37210;50.058;8.688;2022-09-13T01:02:46;7.28;;;6.40;;
51148;SDS011;37210;50.058;8.688;2022-09-13T01:05:18;8.35;;;6.03;;
51148;SDS011;37210;50.058;8.688;2022-09-13T01:07:52;7.85;;;5.88;;
51148;SDS011;37210;50.058;8.688;2022-09-13T01:10:22;7.25;;;6.55;;
51148;SDS011;37210;50.058;8.688;2022-09-13T01:12:51;7.28;;;6.05;;
51148;SDS011;37210;50.058;8.688;2022-09-13T01:15:29;7.65;;;6.18;;
51148;SDS011;37210;50.058;8.688;2022-09-13T01:17:56;8.32;;;7.53;;
51148;SDS011;37210;50.058;8.688;2022-09-13T01:20:26;7.72;;;7.03;;
51148;SDS011;37210;50.058;8.688;2022-09-13T01:23:21;6.78;;;5.93;;
51148;SDS011;37210;50.058;8.688;2022-09-13T01:26:19;7.47;;;6.20;;
51148;SDS011;37210;50.058;8.688;2022-09-13T01:29:27;7.30;;;5.93;;
51148;SDS011;37210;50.058;8.688;2022-09-13T01:32:55;6.90;;;6.30;;
51148;SDS011;37210;50.058;8.688;2022-09-13T01:35:52;6.93;;;6.22;;
51148;SDS011;37210;50.058;8.688;2022-09-13T01:38:41;8.00;;;6.28;;
51148;SDS011;37210;50.058;8.688;2022-09-13T01:41:27;6.88;;;6.28;;
51148;SDS011;37210;50.058;8.688;2022-09-13T01:44:18;8.00;;;6.43;;
51148;SDS011;37210;50.058;8.688;2022-09-13T01:47:05;6.45;;;5.82;;
51148;SDS011;37210;50.058;8.688;2022-09-13T01:49:47;6.95;;;5.90;;
51148;SDS011;37210;50.058;8.688;2022-09-13T01:52:35;6.10;;;5.53;;
51148;SDS011;37210;50.058;8.688;2022-09-13T01:55:11;7.03;;;6.40;;
51148;SDS011;37210;50.058;8.688;2022-09-13T01:57:50;6.38;;;5.78;;
51148;SDS011;37210;50.058;8.688;2022-09-13T02:00:28;6.88;;;6.18;;
51148;SDS011;37210;50.058;8.688;2022-09-13T02:03:03;7.10;;;6.40;;
51148;SDS011;37210;50.058;8.688;2022-09-13T02:05:41;7.20;;;6.50;;
51148;SDS011;37210;50.058;8.688;2022-09-13T02:08:18;6.40;;;5.80;;
51148;SDS011;37210;50.058;8.688;2022-09-13T02:10:52;6.90;;;6.25;;
51148;SDS011;37210;50.058;8.688;2022-09-13T02:13:26;9.13;;;6.60;;
51148;SDS011;37210;50.058;8.688;2022-09-13T02:16:04;6.40;;;5.75;;
51148;SDS011;37210;50.058;8.688;2022-09-13T02:21:11;7.00;;;6.32;;
51148;SDS011;37210;50.058;8.688;2022-09-13T02:23:46;7.28;;;6.57;;
51148;SDS011;37210;50.058;8.688;2022-09-13T02:26:20;6.78;;;5.68;;
51148;SDS011;37210;50.058;8.688;2022-09-13T02:28:51;8.40;;;6.70;;
51148;SDS011;37210;50.058;8.688;2022-09-13T02:31:25;7.05;;;6.35;;
51148;SDS011;37210;50.058;8.688;2022-09-13T02:34:02;7.35;;;6.65;;
51148;SDS011;37210;50.058;8.688;2022-09-13T02:36:38;6.60;;;5.93;;
51148;SDS011;37210;50.058;8.688;2022-09-13T02:39:12;7.35;;;6.65;;
51148;SDS011;37210;50.058;8.688;2022-09-13T02:41:45;7.30;;;6.47;;
51148;SDS011;37210;50.058;8.688;2022-09-13T02:44:23;6.15;;;5.55;;
51148;SDS011;37210;50.058;8.688;2022-09-13T02:47:03;7.03;;;6.32;;
51148;SDS011;37210;50.058;8.688;2022-09-13T02:49:46;7.78;;;6.35;;
51148;SDS011;37210;50.058;8.688;2022-09-13T02:52:26;7.30;;;6.55;;
51148;SDS011;37210;50.058;8.688;2022-09-13T02:55:09;7.10;;;6.10;;
51148;SDS011;37210;50.058;8.688;2022-09-13T02:57:50;7.10;;;6.13;;
51148;SDS011;37210;50.058;8.688;2022-09-13T03:00:26;6.90;;;6.20;;
51148;SDS011;37210;50.058;8.688;2022-09-13T03:02:55;8.43;;;6.78;;
51148;SDS011;37210;50.058;8.688;2022-09-13T03:05:27;7.10;;;6.40;;
51148;SDS011;37210;50.058;8.688;2022-09-13T03:07:56;7.43;;;6.55;;
51148;SDS011;37210;50.058;8.688;2022-09-13T03:10:26;6.97;;;6.28;;
51148;SDS011;37210;50.058;8.688;2022-09-13T03:13:09;6.18;;;5.63;;
51148;SDS011;37210;50.058;8.688;2022-09-13T03:16:03;6.45;;;5.85;;
51148;SDS011;37210;50.058;8.688;2022-09-13T03:18:50;7.30;;;6.60;;
51148;SDS011;37210;50.058;8.688;2022-09-13T03:21:37;7.60;;;6.90;;
51148;SDS011;37210;50.058;8.688;2022-09-13T03:24:27;7.15;;;6.40;;
51148;SDS011;37210;50.058;8.688;2022-09-13T03:27:11;7.00;;;6.07;;
51148;SDS011;37210;50.058;8.688;2022-09-13T03:29:50;7.18;;;6.50;;
51148;SDS011;37210;50.058;8.688;2022-09-13T03:32:26;6.85;;;6.20;;
51148;SDS011;37210;50.058;8.688;2022-09-13T03:35:08;7.43;;;6.40;;
51148;SDS011;37210;50.058;8.688;2022-09-13T03:37:50;6.88;;;6.20;;
51148;SDS011;37210;50.058;8.688;2022-09-13T03:43:05;7.47;;;6.25;;
51148;SDS011;37210;50.058;8.688;2022-09-13T03:45:41;6.68;;;6.03;;
51148;SDS011;37210;50.058;8.688;2022-09-13T03:48:14;7.18;;;6.38;;
51148;SDS011;37210;50.058;8.688;2022-09-13T03:50:44;6.35;;;5.72;;
51148;SDS011;37210;50.058;8.688;2022-09-13T03:53:15;7.28;;;6.57;;
51148;SDS011;37210;50.058;8.688;2022-09-13T03:55:50;8.48;;;6.28;;
51148;SDS011;37210;50.058;8.688;2022-09-13T03:58:19;8.63;;;6.47;;
51148;SDS011;37210;50.058;8.688;2022-09-13T04:00:48;8.02;;;5.88;;
51148;SDS011;37210;50.058;8.688;2022-09-13T04:03:19;6.45;;;5.72;;
51148;SDS011;37210;50.058;8.688;2022-09-13T04:05:49;7.75;;;6.30;;
51148;SDS011;37210;50.058;8.688;2022-09-13T04:08:16;6.43;;;5.82;;
51148;SDS011;37210;50.058;8.688;2022-09-13T04:10:44;7.53;;;6.10;;
51148;SDS011;37210;50.058;8.688;2022-09-13T04:13:18;7.07;;;5.85;;
51148;SDS011;37210;50.058;8.688;2022-09-13T04:15:50;7.50;;;6.30;;
51148;SDS011;37210;50.058;8.688;2022-09-13T04:18:19;7.55;;;6.63;;
51148;SDS011;37210;50.058;8.688;2022-09-13T04:20:52;8.05;;;7.25;;
51148;SDS011;37210;50.058;8.688;2022-09-13T04:23:20;7.53;;;6.60;;
51148;SDS011;37210;50.058;8.688;2022-09-13T04:25:48;8.73;;;7.15;;
51148;SDS011;37210;50.058;8.688;2022-09-13T04:28:18;7.50;;;6.80;;
51148;SDS011;37210;50.058;8.688;2022-09-13T04:30:48;7.07;;;6.38;;
51148;SDS011;37210;50.058;8.688;2022-09-13T04:33:16;7.65;;;6.85;;
51148;SDS011;37210;50.058;8.688;2022-09-13T04:35:43;7.00;;;6.40;;
51148;SDS011;37210;50.058;8.688;2022-09-13T04:38:11;7.25;;;6.65;;
51148;SDS011;37210;50.058;8.688;2022-09-13T04:40:38;8.65;;;7.40;;
51148;SDS011;37210;50.058;8.688;2022-09-13T04:43:10;7.35;;;6.65;;
51148;SDS011;37210;50.058;8.688;2022-09-13T04:45:37;7.75;;;6.85;;
51148;SDS011;37210;50.058;8.688;2022-09-13T04:48:05;7.70;;;7.00;;
51148;SDS011;37210;50.058;8.688;2022-09-13T04:50:33;7.20;;;6.55;;
51148;SDS011;37210;50.058;8.688;2022-09-13T04:53:01;7.22;;;6.53;;
51148;SDS011;37210;50.058;8.688;2022-09-13T04:55:31;8.10;;;7.10;;
51148;SDS011;37210;50.058;8.688;2022-09-13T04:58:01;6.95;;;6.18;;
51148;SDS011;37210;50.058;8.688;2022-09-13T05:00:32;7.63;;;6.80;;
51148;SDS011;37210;50.058;8.688;2022-09-13T05:03:00;8.85;;;7.20;;
51148;SDS011;37210;50.058;8.688;2022-09-13T05:05:28;6.80;;;6.10;;
51148;SDS011;37210;50.058;8.688;2022-09-13T05:07:57;7.70;;;6.93;;
51148;SDS011;37210;50.058;8.688;2022-09-13T05:10:24;7.68;;;6.95;;
51148;SDS011;37210;50.058;8.688;2022-09-13T05:12:53;7.30;;;6.60;;
51148;SDS011;37210;50.058;8.688;2022-09-13T05:15:21;7.97;;;6.80;;
51148;SDS011;37210;50.058;8.688;2022-09-13T05:17:50;7.20;;;6.47;;
51148;SDS011;37210;50.058;8.688;2022-09-13T05:20:18;8.30;;;6.45;;
51148;SDS011;37210;50.058;8.688;2022-09-13T05:22:46;7.63;;;6.45;;
51148;SDS011;37210;50.058;8.688;2022-09-13T05:25:14;8.38;;;6.93;;
51148;SDS011;37210;50.058;8.688;2022-09-13T05:27:43;8.32;;;7.18;;
51148;SDS011;37210;50.058;8.688;2022-09-13T05:30:12;7.50;;;6.80;;
51148;SDS011;37210;50.058;8.688;2022-09-13T05:32:40;8.05;;;7.25;;
51148;SDS011;37210;50.058;8.688;2022-09-13T05:35:09;7.60;;;6.53;;
51148;SDS011;37210;50.058;8.688;2022-09-13T05:37:39;7.10;;;6.43;;
51148;SDS011;37210;50.058;8.688;2022-09-13T05:40:10;7.72;;;6.45;;
51148;SDS011;37210;50.058;8.688;2022-09-13T05:42:40;8.15;;;6.65;;
51148;SDS011;37210;50.058;8.688;2022-09-13T05:45:10;7.65;;;6.38;;
51148;SDS011;37210;50.058;8.688;2022-09-13T05:47:42;9.23;;;7.07;;
51148;SDS011;37210;50.058;8.688;2022-09-13T05:50:11;7.13;;;6.40;;
51148;SDS011;37210;50.058;8.688;2022-09-13T05:52:39;7.55;;;6.75;;
51148;SDS011;37210;50.058;8.688;2022-09-13T05:55:11;7.75;;;6.60;;
51148;SDS011;37210;50.058;8.688;2022-09-13T05:57:42;7.90;;;6.38;;
51148;SDS011;37210;50.058;8.688;2022-09-13T06:00:10;8.57;;;7.20;;
51148;SDS011;37210;50.058;8.688;2022-09-13T06:02:38;10.20;;;7.60;;
51148;SDS011;37210;50.058;8.688;2022-09-13T06:05:07;7.88;;;7.07;;
51148;SDS011;37210;50.058;8.688;2022-09-13T06:07:40;7.15;;;6.05;;
51148;SDS011;37210;50.058;8.688;2022-09-13T06:10:10;7.30;;;6.60;;
51148;SDS011;37210;50.058;8.688;2022-09-13T06:12:38;7.65;;;6.93;;
51148;SDS011;37210;50.058;8.688;2022-09-13T06:15:07;7.90;;;7.10;;
51148;SDS011;37210;50.058;8.688;2022-09-13T06:17:46;7.90;;;6.50;;
51148;SDS011;37210;50.058;8.688;2022-09-13T06:20:14;7.28;;;6.53;;
51148;SDS011;37210;50.058;8.688;2022-09-13T06:22:43;6.38;;;5.78;;
51148;SDS011;37210;50.058;8.688;2022-09-13T06:25:10;8.32;;;6.40;;
51148;SDS011;37210;50.058;8.688;2022-09-13T06:27:39;7.63;;;6.70;;
51148;SDS011;37210;50.058;8.688;2022-09-13T06:30:07;7.18;;;6.53;;
51148;SDS011;37210;50.058;8.688;2022-09-13T06:32:37;8.23;;;7.43;;
51148;SDS011;37210;50.058;8.688;2022-09-13T06:35:08;8.05;;;7.25;;
51148;SDS011;37210;50.058;8.688;2022-09-13T06:37:46;7.65;;;6.68;;
51148;SDS011;37210;50.058;8.688;2022-09-13T06:40:20;7.55;;;6.68;;
51148;SDS011;37210;50.058;8.688;2022-09-13T06:42:55;7.38;;;6.32;;
51148;SDS011;37210;50.058;8.688;2022-09-13T06:45:26;7.68;;;6.78;;
51148;SDS011;37210;50.058;8.688;2022-09-13T06:47:55;9.80;;;8.80;;
51148;SDS011;37210;50.058;8.688;2022-09-13T06:50:27;8.18;;;7.35;;
51148;SDS011;37210;50.058;8.688;2022-09-13T06:52:57;7.93;;;7.13;;
51148;SDS011;37210;50.058;8.688;2022-09-13T06:55:25;8.02;;;7.22;;
51148;SDS011;37210;50.058;8.688;2022-09-13T06:57:54;8.45;;;6.93;;
51148;SDS011;37210;50.058;8.688;2022-09-13T07:00:29;11.75;;;7.38;;
51148;SDS011;37210;50.058;8.688;2022-09-13T07:02:59;7.72;;;6.97;;
51148;SDS011;37210;50.058;8.688;2022-09-13T07:05:30;9.77;;;7.10;;
51148;SDS011;37210;50.058;8.688;2022-09-13T07:08:00;7.97;;;7.15;;
51148;SDS011;37210;50.058;8.688;2022-09-13T07:10:30;7.68;;;6.82;;
51148;SDS011;37210;50.058;8.688;2022-09-13T07:12:58;7.88;;;7.05;;
51148;SDS011;37210;50.058;8.688;2022-09-13T07:15:32;8.60;;;7.80;;
51148;SDS011;37210;50.058;8.688;2022-09-13T07:18:09;8.45;;;7.00;;
51148;SDS011;37210;50.058;8.688;2022-09-13T07:20:37;8.68;;;7.22;;
51148;SDS011;37210;50.058;8.688;2022-09-13T07:23:09;9.30;;;7.35;;
51148;SDS011;37210;50.058;8.688;2022-09-13T07:25:52;8.55;;;7.65;;
51148;SDS011;37210;50.058;8.688;2022-09-13T07:28:29;7.47;;;6.72;;
51148;SDS011;37210;50.058;8.688;2022-09-13T07:31:03;7.70;;;6.90;;
51148;SDS011;37210;50.058;8.688;2022-09-13T07:33:38;8.77;;;7.57;;
51148;SDS011;37210;50.058;8.688;2022-09-13T07:36:10;8.45;;;7.65;;
51148;SDS011;37210;50.058;8.688;2022-09-13T07:38:41;8.38;;;7.57;;
51148;SDS011;37210;50.058;8.688;2022-09-13T07:41:11;7.93;;;7.13;;
51148;SDS011;37210;50.058;8.688;2022-09-13T07:43:51;9.68;;;8.57;;
51148;SDS011;37210;50.058;8.688;2022-09-13T07:46:20;9.23;;;7.75;;
51148;SDS011;37210;50.058;8.688;2022-09-13T07:48:51;8.73;;;7.85;;
51148;SDS011;37210;50.058;8.688;2022-09-13T07:51:20;8.65;;;7.72;;
51148;SDS011;37210;50.058;8.688;2022-09-13T07:54:02;8.68;;;7.70;;
51148;SDS011;37210;50.058;8.688;2022-09-13T07:56:33;9.55;;;7.65;;
51148;SDS011;37210;50.058;8.688;2022-09-13T07:59:12;9.13;;;7.90;;
51148;SDS011;37210;50.058;8.688;2022-09-13T08:01:48;8.88;;;7.97;;
51148;SDS011;37210;50.058;8.688;2022-09-13T08:04:23;8.48;;;7.65;;
51148;SDS011;37210;50.058;8.688;2022-09-13T08:06:51;9.50;;;7.82;;
51148;SDS011;37210;50.058;8.688;2022-09-13T08:09:22;8.45;;;7.53;;
51148;SDS011;37210;50.058;8.688;2022-09-13T08:11:50;8.23;;;7.40;;
51148;SDS011;37210;50.058;8.688;2022-09-13T08:14:20;10.25;;;9.02;;
51148;SDS011;37210;50.058;8.688;2022-09-13T08:16:49;9.30;;;8.27;;
51148;SDS011;37210;50.058;8.688;2022-09-13T08:19:20;9.52;;;8.52;;
51148;SDS011;37210;50.058;8.688;2022-09-13T08:21:48;9.93;;;7.53;;
51148;SDS011;37210;50.058;8.688;2022-09-13T08:24:16;9.60;;;7.88;;
51148;SDS011;37210;50.058;8.688;2022-09-13T08:26:49;9.98;;;8.45;;
51148;SDS011;37210;50.058;8.688;2022-09-13T08:29:30;10.98;;;8.88;;
51148;SDS011;37210;50.058;8.688;2022-09-13T08:31:58;8.93;;;8.02;;
51148;SDS011;37210;50.058;8.688;2022-09-13T08:34:26;11.68;;;8.63;;
51148;SDS011;37210;50.058;8.688;2022-09-13T08:36:57;9.15;;;8.20;;
51148;SDS011;37210;50.058;8.688;2022-09-13T08:39:26;11.68;;;8.82;;
51148;SDS011;37210;50.058;8.688;2022-09-13T08:42:09;9.38;;;8.13;;
51148;SDS011;37210;50.058;8.688;2022-09-13T08:44:51;10.00;;;8.98;;
51148;SDS011;37210;50.058;8.688;2022-09-13T08:47:34;10.07;;;8.30;;
51148;SDS011;37210;50.058;8.688;2022-09-13T08:50:21;8.18;;;7.38;;
51148;SDS011;37210;50.058;8.688;2022-09-13T08:52:56;7.65;;;6.90;;
51148;SDS011;37210;50.058;8.688;2022-09-13T08:55:48;8.45;;;7.55;;
51148;SDS011;37210;50.058;8.688;2022-09-13T08:58:35;7.68;;;6.85;;
51148;SDS011;37210;50.058;8.688;2022-09-13T09:01:41;8.00;;;7.20;;
51148;SDS011;37210;50.058;8.688;2022-09-13T09:04:27;8.43;;;7.15;;
51148;SDS011;37210;50.058;8.688;2022-09-13T09:07:05;6.90;;;6.30;;
51148;SDS011;37210;50.058;8.688;2022-09-13T09:09:39;7.72;;;6.90;;
51148;SDS011;37210;50.058;8.688;2022-09-13T09:12:14;8.10;;;6.05;;
51148;SDS011;37210;50.058;8.688;2022-09-13T09:15:02;7.20;;;6.15;;
51148;SDS011;37210;50.058;8.688;2022-09-13T09:17:42;7.30;;;6.22;;
51148;SDS011;37210;50.058;8.688;2022-09-13T09:20:23;10.50;;;8.88;;
51148;SDS011;37210;50.058;8.688;2022-09-13T09:22:58;8.82;;;7.55;;
51148;SDS011;37210;50.058;8.688;2022-09-13T09:25:33;7.22;;;6.25;;
51148;SDS011;37210;50.058;8.688;2022-09-13T09:28:01;9.45;;;7.25;;
51148;SDS011;37210;50.058;8.688;2022-09-13T09:30:42;9.38;;;7.10;;
51148;SDS011;37210;50.058;8.688;2022-09-13T09:33:30;8.52;;;6.80;;
51148;SDS011;37210;50.058;8.688;2022-09-13T09:36:19;7.45;;;6.65;;
51148;SDS011;37210;50.058;8.688;2022-09-13T09:39:21;8.90;;;6.88;;
51148;SDS011;37210;50.058;8.688;2022-09-13T09:41:58;9.57;;;6.80;;
51148;SDS011;37210;50.058;8.688;2022-09-13T09:44:29;7.43;;;6.72;;
51148;SDS011;37210;50.058;8.688;2022-09-13T09:47:02;8.73;;;6.85;;
51148;SDS011;37210;50.058;8.688;2022-09-13T09:49:40;10.00;;;8.18;;
51148;SDS011;37210;50.058;8.688;2022-09-13T09:52:31;8.57;;;6.88;;
51148;SDS011;37210;50.058;8.688;2022-09-13T09:55:13;8.57;;;7.30;;
51148;SDS011;37210;50.058;8.688;2022-09-13T09:57:54;7.28;;;6.53;;
51148;SDS011;37210;50.058;8.688;2022-09-13T10:00:24;8.95;;;7.07;;
51148;SDS011;37210;50.058;8.688;2022-09-13T10:02:57;8.70;;;7.47;;
51148;SDS011;37210;50.058;8.688;2022-09-13T10:05:29;8.70;;;7.80;;
51148;SDS011;37210;50.058;8.688;2022-09-13T10:08:04;8.60;;;7.70;;
51148;SDS011;37210;50.058;8.688;2022-09-13T10:10:35;11.25;;;8.07;;
51148;SDS011;37210;50.058;8.688;2022-09-13T10:13:12;8.95;;;7.43;;
51148;SDS011;37210;50.058;8.688;2022-09-13T10:15:51;9.63;;;7.20;;
51148;SDS011;37210;50.058;8.688;2022-09-13T10:18:24;9.93;;;7.78;;
51148;SDS011;37210;50.058;8.688;2022-09-13T10:21:01;8.68;;;7.75;;
51148;SDS011;37210;50.058;8.688;2022-09-13T10:23:33;9.45;;;8.02;;
51148;SDS011;37210;50.058;8.688;2022-09-13T10:26:09;9.23;;;7.70;;
51148;SDS011;37210;50.058;8.688;2022-09-13T10:28:41;8.43;;;7.55;;
51148;SDS011;37210;50.058;8.688;2022-09-13T10:31:17;8.30;;;7.50;;
51148;SDS011;37210;50.058;8.688;2022-09-13T10:33:57;9.05;;;7.75;;
51148;SDS011;37210;50.058;8.688;2022-09-13T10:36:29;9.45;;;7.57;;
51148;SDS011;37210;50.058;8.688;2022-09-13T10:39:03;9.02;;;8.13;;
51148;SDS011;37210;50.058;8.688;2022-09-13T10:41:46;9.40;;;7.55;;
51148;SDS011;37210;50.058;8.688;2022-09-13T10:44:23;9.77;;;7.18;;
51148;SDS011;37210;50.058;8.688;2022-09-13T10:46:56;8.55;;;7.40;;
51148;SDS011;37210;50.058;8.688;2022-09-13T10:49:35;8.82;;;7.93;;
51148;SDS011;37210;50.058;8.688;2022-09-13T11:04:15;9.43;;;8.38;;
51148;SDS011;37210;50.058;8.688;2022-09-13T11:07:23;9.07;;;8.15;;
51148;SDS011;37210;50.058;8.688;2022-09-13T11:10:42;10.17;;;9.17;;
51148;SDS011;37210;50.058;8.688;2022-09-13T11:13:42;9.10;;;8.15;;
51148;SDS011;37210;50.058;8.688;2022-09-13T11:17:07;9.38;;;7.55;;
51148;SDS011;37210;50.058;8.688;2022-09-13T11:23:05;10.15;;;8.20;;
51148;SDS011;37210;50.058;8.688;2022-09-13T11:26:24;11.80;;;9.07;;
51148;SDS011;37210;50.058;8.688;2022-09-13T11:29:11;10.48;;;8.98;;
51148;SDS011;37210;50.058;8.688;2022-09-13T11:32:04;12.02;;;9.07;;
51148;SDS011;37210;50.058;8.688;2022-09-13T11:34:49;10.73;;;9.38;;
51148;SDS011;37210;50.058;8.688;2022-09-13T11:37:53;10.60;;;9.50;;
51148;SDS011;37210;50.058;8.688;2022-09-13T11:40:36;11.20;;;8.52;;
51148;SDS011;37210;50.058;8.688;2022-09-13T11:43:19;9.90;;;8.90;;
51148;SDS011;37210;50.058;8.688;2022-09-13T11:46:06;10.73;;;8.73;;
51148;SDS011;37210;50.058;8.688;2022-09-13T11:48:48;9.43;;;8.38;;
51148;SDS011;37210;50.058;8.688;2022-09-13T11:51:43;10.60;;;8.55;;
51148;SDS011;37210;50.058;8.688;2022-09-13T11:54:27;12.90;;;8.93;;
51148;SDS011;37210;50.058;8.688;2022-09-13T11:57:26;10.93;;;8.63;;
51148;SDS011;37210;50.058;8.688;2022-09-13T12:00:13;9.70;;;8.70;;
51148;SDS011;37210;50.058;8.688;2022-09-13T12:02:49;10.45;;;9.15;;
51148;SDS011;37210;50.058;8.688;2022-09-13T12:05:31;11.38;;;8.50;;
51148;SDS011;37210;50.058;8.688;2022-09-13T12:08:13;9.75;;;8.55;;
51148;SDS011;37210;50.058;8.688;2022-09-13T12:10:49;8.98;;;8.13;;
51148;SDS011;37210;50.058;8.688;2022-09-13T12:13:25;9.68;;;8.25;;
51148;SDS011;37210;50.058;8.688;2022-09-13T12:16:03;10.35;;;8.45;;
51148;SDS011;37210;50.058;8.688;2022-09-13T12:18:41;8.20;;;7.40;;
51148;SDS011;37210;50.058;8.688;2022-09-13T12:21:23;8.80;;;7.90;;
51148;SDS011;37210;50.058;8.688;2022-09-13T12:24:06;9.45;;;8.45;;
51148;SDS011;37210;50.058;8.688;2022-09-13T12:26:51;12.00;;;9.35;;
51148;SDS011;37210;50.058;8.688;2022-09-13T12:29:30;9.52;;;8.48;;
51148;SDS011;37210;50.058;8.688;2022-09-13T12:32:10;8.18;;;7.32;;
51148;SDS011;37210;50.058;8.688;2022-09-13T12:35:47;8.20;;;7.40;;
51148;SDS011;37210;50.058;8.688;2022-09-13T12:39:04;11.52;;;8.30;;
51148;SDS011;37210;50.058;8.688;2022-09-13T12:42:33;10.15;;;8.45;;
51148;SDS011;37210;50.058;8.688;2022-09-13T12:45:31;8.98;;;8.10;;
51148;SDS011;37210;50.058;8.688;2022-09-13T12:48:38;8.55;;;7.65;;
51148;SDS011;37210;50.058;8.688;2022-09-13T12:51:58;8.63;;;7.47;;
51148;SDS011;37210;50.058;8.688;2022-09-13T12:58:05;7.88;;;6.68;;
51148;SDS011;37210;50.058;8.688;2022-09-13T13:00:58;8.98;;;7.55;;
51148;SDS011;37210;50.058;8.688;2022-09-13T13:03:40;7.68;;;6.85;;
51148;SDS011;37210;50.058;8.688;2022-09-13T13:06:27;8.73;;;7.28;;
51148;SDS011;37210;50.058;8.688;2022-09-13T13:09:01;7.63;;;6.93;;
51148;SDS011;37210;50.058;8.688;2022-09-13T13:11:57;7.20;;;6.50;;
51148;SDS011;37210;50.058;8.688;2022-09-13T13:14:46;8.45;;;6.05;;
51148;SDS011;37210;50.058;8.688;2022-09-13T13:17:35;9.77;;;7.57;;
51148;SDS011;37210;50.058;8.688;2022-09-13T13:23:32;8.02;;;7.22;;
51148;SDS011;37210;50.058;8.688;2022-09-13T13:26:06;8.50;;;6.97;;
51148;SDS011;37210;50.058;8.688;2022-09-13T13:29:02;10.70;;;7.90;;
51148;SDS011;37210;50.058;8.688;2022-09-13T13:34:38;8.27;;;7.43;;
51148;SDS011;37210;50.058;8.688;2022-09-13T13:41:35;8.18;;;7.10;;
51148;SDS011;37210;50.058;8.688;2022-09-13T13:47:51;8.88;;;7.25;;
51148;SDS011;37210;50.058;8.688;2022-09-13T13:53:45;9.88;;;6.85;;
51148;SDS011;37210;50.058;8.688;2022-09-13T13:56:45;7.90;;;7.10;;
51148;SDS011;37210;50.058;8.688;2022-09-13T13:59:22;8.00;;;6.53;;
51148;SDS011;37210;50.058;8.688;2022-09-13T14:02:12;7.75;;;6.53;;
51148;SDS011;37210;50.058;8.688;2022-09-13T14:11:13;8.20;;;6.28;;
51148;SDS011;37210;50.058;8.688;2022-09-13T14:14:29;6.93;;;6.10;;
51148;SDS011;37210;50.058;8.688;2022-09-13T14:21:28;7.15;;;5.70;;
51148;SDS011;37210;50.058;8.688;2022-09-13T14:24:16;7.97;;;6.13;;
51148;SDS011;37210;50.058;8.688;2022-09-13T14:27:09;6.95;;;5.32;;
51148;SDS011;37210;50.058;8.688;2022-09-13T14:29:59;8.10;;;6.68;;
51148;SDS011;37210;50.058;8.688;2022-09-13T14:32:55;6.25;;;5.68;;
51148;SDS011;37210;50.058;8.688;2022-09-13T14:35:29;6.95;;;6.25;;
51148;SDS011;37210;50.058;8.688;2022-09-13T14:41:47;7.35;;;5.75;;
51148;SDS011;37210;50.058;8.688;2022-09-13T14:50:00;7.63;;;5.65;;
51148;SDS011;37210;50.058;8.688;2022-09-13T14:53:24;6.63;;;5.93;;
51148;SDS011;37210;50.058;8.688;2022-09-13T15:03:47;9.02;;;6.45;;
51148;SDS011;37210;50.058;8.688;2022-09-13T15:16:52;7.25;;;6.07;;
51148;SDS011;37210;50.058;8.688;2022-09-13T15:19:48;8.20;;;6.30;;
51148;SDS011;37210;50.058;8.688;2022-09-13T15:27:00;6.82;;;6.22;;
51148;SDS011;37210;50.058;8.688;2022-09-13T15:30:21;6.60;;;6.07;;
51148;SDS011;37210;50.058;8.688;2022-09-13T15:33:38;6.97;;;6.10;;
51148;SDS011;37210;50.058;8.688;2022-09-13T15:40:01;8.40;;;6.55;;
51148;SDS011;37210;50.058;8.688;2022-09-13T15:42:46;7.00;;;6.30;;
51148;SDS011;37210;50.058;8.688;2022-09-13T15:45:20;7.05;;;6.35;;
51148;SDS011;37210;50.058;8.688;2022-09-13T15:51:15;7.30;;;5.35;;
51148;SDS011;37210;50.058;8.688;2022-09-13T15:57:33;6.35;;;5.75;;
51148;SDS011;37210;50.058;8.688;2022-09-13T16:04:02;7.10;;;6.40;;
51148;SDS011;37210;50.058;8.688;2022-09-13T16:06:34;7.05;;;6.35;;
51148;SDS011;37210;50.058;8.688;2022-09-13T16:09:04;7.32;;;6.63;;
51148;SDS011;37210;50.058;8.688;2022-09-13T16:11:43;7.75;;;6.22;;
51148;SDS011;37210;50.058;8.688;2022-09-13T16:14:11;6.72;;;6.07;;
51148;SDS011;37210;50.058;8.688;2022-09-13T16:16:39;6.90;;;6.13;;
51148;SDS011;37210;50.058;8.688;2022-09-13T16:19:08;7.47;;;6.55;;
51148;SDS011;37210;50.058;8.688;2022-09-13T16:21:41;7.82;;;6.22;;
51148;SDS011;37210;50.058;8.688;2022-09-13T16:24:09;6.70;;;6.10;;
51148;SDS011;37210;50.058;8.688;2022-09-13T16:26:37;7.03;;;5.80;;
51148;SDS011;37210;50.058;8.688;2022-09-13T16:29:06;8.57;;;5.95;;
51148;SDS011;37210;50.058;8.688;2022-09-13T16:31:36;6.13;;;5.53;;
51148;SDS011;37210;50.058;8.688;2022-09-13T16:34:03;6.65;;;5.65;;
51148;SDS011;37210;50.058;8.688;2022-09-13T16:36:31;6.65;;;4.93;;
51148;SDS011;37210;50.058;8.688;2022-09-13T16:38:58;5.38;;;4.95;;
51148;SDS011;37210;50.058;8.688;2022-09-13T16:41:26;5.70;;;5.07;;
51148;SDS011;37210;50.058;8.688;2022-09-13T16:43:54;5.93;;;5.30;;
51148;SDS011;37210;50.058;8.688;2022-09-13T16:46:23;6.78;;;6.10;;
51148;SDS011;37210;50.058;8.688;2022-09-13T16:48:51;6.15;;;5.65;;
51148;SDS011;37210;50.058;8.688;2022-09-13T16:51:20;6.50;;;5.88;;
51148;SDS011;37210;50.058;8.688;2022-09-13T16:53:49;6.47;;;5.88;;
51148;SDS011;37210;50.058;8.688;2022-09-13T16:56:20;6.80;;;6.03;;
51148;SDS011;37210;50.058;8.688;2022-09-13T16:58:50;6.95;;;5.50;;
51148;SDS011;37210;50.058;8.688;2022-09-13T17:01:20;5.90;;;5.30;;
51148;SDS011;37210;50.058;8.688;2022-09-13T17:03:54;6.90;;;6.25;;
51148;SDS011;37210;50.058;8.688;2022-09-13T17:06:23;6.43;;;5.82;;
51148;SDS011;37210;50.058;8.688;2022-09-13T17:08:56;7.93;;;6.30;;
51148;SDS011;37210;50.058;8.688;2022-09-13T17:11:28;7.68;;;5.82;;
51148;SDS011;37210;50.058;8.688;2022-09-13T17:14:02;6.22;;;5.40;;
51148;SDS011;37210;50.058;8.688;2022-09-13T17:16:34;6.50;;;5.90;;
51148;SDS011;37210;50.058;8.688;2022-09-13T17:19:07;6.63;;;5.72;;
51148;SDS011;37210;50.058;8.688;2022-09-13T17:21:38;6.50;;;5.90;;
51148;SDS011;37210;50.058;8.688;2022-09-13T17:24:06;6.38;;;5.78;;